createdAt,value
2024-05-09T00:01:56.732Z,99527.71
2024-05-09T00:06:58.441Z,99525.18
2024-05-09T00:12:00.286Z,99497.25
2024-05-09T00:17:02.064Z,99521.94
2024-05-09T00:22:04.062Z,99514.77
2024-05-09T00:27:05.962Z,99512.20
2024-05-09T00:32:07.969Z,99510.92
2024-05-09T00:37:09.625Z,99505.63
2024-05-09T00:42:11.346Z,99503.64
2024-05-09T00:47:13.080Z,99496.48
2024-05-09T00:52:14.780Z,99495.59
2024-05-09T00:57:17.011Z,99501.95
2024-05-09T01:02:18.908Z,99504.84
2024-05-09T01:07:20.710Z,99514.07
2024-05-09T01:12:22.622Z,99520.21
2024-05-09T01:17:24.587Z,99517.73
2024-05-09T01:22:28.024Z,99521.73
2024-05-09T01:27:30.996Z,99524.00
2024-05-09T01:32:32.805Z,99525.90
2024-05-09T01:37:34.534Z,99529.89
2024-05-09T01:42:36.368Z,99526.27
2024-05-09T01:47:38.332Z,99526.48
2024-05-09T01:52:40.164Z,99526.20
2024-05-09T01:57:41.815Z,99526.80
2024-05-09T02:02:46.392Z,99528.30
2024-05-09T02:07:48.084Z,99528.05
2024-05-09T02:12:49.784Z,99529.81
2024-05-09T02:17:51.610Z,99526.84
2024-05-09T02:22:53.583Z,99525.46
2024-05-09T02:27:55.215Z,99527.88
2024-05-09T02:32:57.035Z,99537.42
2024-05-09T02:37:58.863Z,99534.76
2024-05-09T02:43:00.993Z,99530.38
2024-05-09T02:48:03.074Z,99528.03
2024-05-09T02:53:05.313Z,99529.68
2024-05-09T02:58:07.925Z,99526.37
2024-05-09T03:03:12.537Z,99529.85
2024-05-09T03:08:16.268Z,99530.73
2024-05-09T03:13:17.922Z,99532.14
2024-05-09T03:18:19.851Z,99535.13
2024-05-09T03:23:21.729Z,99484.02
2024-05-09T03:28:23.458Z,99534.20
2024-05-09T03:33:25.340Z,99535.39
2024-05-09T03:38:27.328Z,99536.92
2024-05-09T03:43:29.000Z,99530.27
2024-05-09T03:48:34.649Z,99530.68
2024-05-09T03:53:36.404Z,99519.44
2024-05-09T03:58:39.221Z,99529.14
2024-05-09T04:03:41.214Z,99536.41
2024-05-09T04:08:43.023Z,99540.90
2024-05-09T04:13:44.770Z,99542.73
2024-05-09T04:18:46.470Z,99545.52
2024-05-09T04:23:48.197Z,99551.08
2024-05-09T04:28:49.906Z,99554.10
2024-05-09T04:33:51.760Z,99557.73
2024-05-09T04:38:53.467Z,99560.67
2024-05-09T04:43:55.335Z,99565.83
2024-05-09T04:48:57.106Z,99574.33
2024-05-09T04:53:58.782Z,99574.75
2024-05-09T04:59:00.475Z,99570.02
2024-05-09T05:04:02.489Z,99571.68
2024-05-09T05:09:04.241Z,99577.46
2024-05-09T05:14:05.928Z,99578.80
2024-05-09T05:19:10.835Z,99583.23
2024-05-09T05:24:13.561Z,99586.89
2024-05-09T05:29:17.218Z,99594.32
2024-05-09T05:34:20.250Z,99589.08
2024-05-09T05:39:21.959Z,99586.95
2024-05-09T05:44:25.224Z,99589.69
2024-05-09T05:49:32.342Z,99588.67
2024-05-09T05:54:34.131Z,99593.45
2024-05-09T05:59:35.799Z,99593.69
2024-05-09T06:04:37.486Z,99590.13
2024-05-09T06:09:39.315Z,99589.08
2024-05-09T06:14:40.956Z,99586.09
2024-05-09T06:19:42.726Z,99594.48
2024-05-09T06:24:44.507Z,99595.64
2024-05-09T06:29:46.303Z,99595.22
2024-05-09T06:34:48.132Z,99588.21
2024-05-09T06:39:50.036Z,99591.55
2024-05-09T06:44:51.663Z,99591.09
2024-05-09T06:49:53.431Z,99595.82
2024-05-09T06:54:55.181Z,99589.90
2024-05-09T07:00:00.636Z,99592.05
2024-05-09T07:05:02.655Z,99591.48
2024-05-09T07:10:07.724Z,99586.90
2024-05-09T07:15:09.784Z,99583.67
2024-05-09T07:20:16.600Z,99581.46
2024-05-09T07:25:24.971Z,99586.29
2024-05-09T07:30:33.091Z,99586.80
2024-05-09T07:35:36.402Z,99587.83
2024-05-09T07:40:39.144Z,99587.29
2024-05-09T07:45:50.481Z,99589.30
2024-05-09T07:52:39.111Z,99587.20
2024-05-09T07:56:18.628Z,99583.56
2024-05-09T08:01:21.540Z,99580.21
2024-05-09T08:06:25.286Z,99582.15
2024-05-09T08:11:27.050Z,99586.38
2024-05-09T08:16:28.921Z,99580.67
2024-05-09T08:21:30.756Z,99582.00
2024-05-09T08:26:32.592Z,99583.67
2024-05-09T08:31:37.869Z,99580.83
2024-05-09T08:36:40.632Z,99582.29
2024-05-09T08:41:42.702Z,99581.05
2024-05-09T08:46:47.705Z,99582.72
2024-05-09T08:51:49.412Z,99581.56
2024-05-09T08:56:51.301Z,99584.02
2024-05-09T09:01:54.268Z,99576.52
2024-05-09T09:06:58.399Z,99580.48
2024-05-09T09:12:01.138Z,99581.23
2024-05-09T09:17:15.896Z,99580.15
2024-05-09T09:22:19.313Z,99581.14
2024-05-09T09:27:21.994Z,99577.81
2024-05-09T09:32:28.082Z,99572.48
2024-05-09T09:37:32.646Z,99575.82
2024-05-09T09:42:37.101Z,99568.05
2024-05-09T09:47:41.226Z,99568.09
2024-05-09T09:52:43.464Z,99568.00
2024-05-09T09:57:45.989Z,99567.44
2024-05-09T10:02:48.776Z,99567.69
2024-05-09T10:07:52.178Z,99565.26
2024-05-09T10:13:02.934Z,99561.38
2024-05-09T10:18:06.458Z,99561.71
2024-05-09T10:23:27.224Z,99561.41
2024-05-09T10:28:30.312Z,99557.81
2024-05-09T10:33:37.232Z,99559.27
2024-05-09T10:38:40.225Z,99553.70
2024-05-09T10:43:45.364Z,99546.00
2024-05-09T10:48:48.529Z,99543.58
2024-05-09T10:53:52.331Z,99535.52
2024-05-09T10:58:57.432Z,99533.96
2024-05-09T11:03:59.262Z,99521.55
2024-05-09T11:09:01.027Z,99523.33
2024-05-09T11:14:12.195Z,99529.44
2024-05-09T11:19:14.539Z,99518.55
2024-05-09T11:24:16.475Z,99518.89
2024-05-09T11:29:19.577Z,99517.96
2024-05-09T11:34:21.779Z,99508.31
2024-05-09T11:39:23.530Z,99512.85
2024-05-09T11:44:26.764Z,99509.64
2024-05-09T11:49:28.405Z,99505.73
2024-05-09T11:54:32.933Z,99503.84
2024-05-09T11:59:34.870Z,99495.62
2024-05-09T12:04:36.603Z,99498.66
2024-05-09T12:09:38.449Z,99496.59
2024-05-09T12:14:40.227Z,99499.95
2024-05-09T12:19:41.951Z,99491.89
2024-05-09T12:24:43.683Z,99481.59
2024-05-09T12:29:47.392Z,99473.63
2024-05-09T12:34:49.011Z,99472.69
2024-05-09T12:39:50.811Z,99466.95
2024-05-09T12:44:52.547Z,99468.92
2024-05-09T12:49:54.406Z,99471.20
2024-05-09T12:54:56.120Z,99463.97
2024-05-09T12:59:58.045Z,99448.20
2024-05-09T13:04:59.802Z,99440.86
2024-05-09T13:10:02.237Z,99433.42
2024-05-09T13:15:05.074Z,99429.95
2024-05-09T13:20:11.868Z,99429.89
2024-05-09T13:25:16.854Z,99430.20
2024-05-09T13:30:26.367Z,99423.45
2024-05-09T13:35:36.442Z,99420.80
2024-05-09T13:40:38.317Z,99418.18
2024-05-09T13:45:40.208Z,99413.58
2024-05-09T13:50:42.134Z,99401.71
2024-05-09T13:55:43.936Z,99398.06
2024-05-09T14:00:48.931Z,99403.24
2024-05-09T14:05:52.121Z,99396.99
2024-05-09T14:10:54.598Z,99392.93
2024-05-09T14:15:56.578Z,99388.11
2024-05-09T14:20:58.516Z,99382.65
2024-05-09T14:26:00.188Z,99384.80
2024-05-09T14:31:01.944Z,99381.70
2024-05-09T14:36:04.236Z,99384.50
2024-05-09T14:41:07.769Z,99382.41
2024-05-09T14:46:10.194Z,99373.95
2024-05-09T14:51:11.823Z,99375.66
2024-05-09T14:56:14.447Z,99373.98
2024-05-09T15:01:16.814Z,99370.23
2024-05-09T15:06:19.006Z,99363.93
2024-05-09T15:11:20.915Z,99364.11
2024-05-09T15:16:22.989Z,99365.52
2024-05-09T15:21:24.758Z,99362.84
2024-05-09T15:26:27.047Z,99364.02
2024-05-09T15:31:29.704Z,99363.15
2024-05-09T15:36:31.605Z,99362.36
2024-05-09T15:41:33.322Z,99358.30
2024-05-09T15:46:34.922Z,99361.08
2024-05-09T15:51:36.786Z,99353.70
2024-05-09T15:56:39.245Z,99354.25
2024-05-09T16:01:41.007Z,99347.46
2024-05-09T16:06:46.605Z,99344.45
2024-05-09T16:11:48.370Z,99344.21
2024-05-09T16:16:50.560Z,99341.23
2024-05-09T16:21:52.600Z,99337.20
2024-05-09T16:26:54.421Z,99329.45
2024-05-09T16:31:56.889Z,99326.45
2024-05-09T16:36:58.733Z,99329.70
2024-05-09T16:42:00.472Z,99327.95
2024-05-09T16:47:02.256Z,99323.89
2024-05-09T16:52:04.225Z,99327.49
2024-05-09T16:57:06.103Z,99326.23
2024-05-09T17:02:09.614Z,99327.38
2024-05-09T17:07:12.014Z,99326.47
2024-05-09T17:12:13.800Z,99329.56
2024-05-09T17:17:15.638Z,99325.95
2024-05-09T17:22:17.422Z,99323.61
2024-05-09T17:27:19.196Z,99330.05
2024-05-09T17:32:20.847Z,99333.41
2024-05-09T17:37:23.126Z,99331.54
2024-05-09T17:42:24.794Z,99336.23
2024-05-09T17:47:26.819Z,99333.52
2024-05-09T17:52:28.732Z,99334.73
2024-05-09T17:57:30.894Z,99338.46
2024-05-09T18:02:33.217Z,99345.33
2024-05-09T18:07:35.162Z,99349.02
2024-05-09T18:12:36.837Z,99350.23
2024-05-09T18:17:38.637Z,99348.98
2024-05-09T18:22:40.412Z,99344.41
2024-05-09T18:27:42.143Z,99350.34
2024-05-09T18:32:44.220Z,99352.23
2024-05-09T18:37:46.209Z,99355.98
2024-05-09T18:42:47.806Z,99363.11
2024-05-09T18:47:49.690Z,99366.46
2024-05-09T18:52:51.342Z,99374.07
2024-05-09T18:57:52.928Z,99382.54
2024-05-09T19:02:54.861Z,99391.83
2024-05-09T19:07:57.233Z,99394.59
2024-05-09T19:12:59.019Z,99396.83
2024-05-09T19:18:00.856Z,99405.09
2024-05-09T19:23:02.792Z,99403.72
2024-05-09T19:28:05.575Z,99411.10
2024-05-09T19:33:08.756Z,99414.32
2024-05-09T19:38:11.576Z,99414.64
2024-05-09T19:43:13.359Z,99423.17
2024-05-09T19:48:15.638Z,99427.76
2024-05-09T19:53:17.549Z,99423.74
2024-05-09T19:58:20.671Z,99426.05
2024-05-09T20:03:22.660Z,99429.50
2024-05-09T20:08:24.468Z,99430.70
2024-05-09T20:13:26.120Z,99433.45
2024-05-09T20:18:27.898Z,99436.36
2024-05-09T20:23:29.852Z,99443.20
2024-05-09T20:28:31.512Z,99440.83
2024-05-09T20:33:33.435Z,99439.76
2024-05-09T20:38:35.360Z,99436.92
2024-05-09T20:43:36.971Z,99437.16
2024-05-09T20:48:38.845Z,99437.91
2024-05-09T20:53:40.630Z,99439.54
2024-05-09T20:58:42.499Z,99438.26
2024-05-09T21:03:44.240Z,99437.58
2024-05-09T21:08:46.432Z,99434.52
2024-05-09T21:13:50.219Z,99443.59
2024-05-09T21:18:51.978Z,99442.46
2024-05-09T21:23:55.967Z,99443.20
2024-05-09T21:28:57.654Z,99443.31
2024-05-09T21:33:59.622Z,99437.50
2024-05-09T21:39:01.480Z,99438.02
2024-05-09T21:44:06.027Z,99436.20
2024-05-09T21:49:07.826Z,99433.90
2024-05-09T21:54:09.563Z,99438.66
2024-05-09T21:59:11.378Z,99430.75
2024-05-09T22:04:13.354Z,99433.83
2024-05-09T22:09:15.071Z,99434.26
2024-05-09T22:14:16.758Z,99431.92
2024-05-09T22:19:18.745Z,99429.89
2024-05-09T22:24:20.593Z,99431.77
2024-05-09T22:29:22.266Z,99432.93
2024-05-09T22:34:24.052Z,99431.98
2024-05-09T22:39:26.126Z,99431.58
2024-05-09T22:44:27.807Z,99429.73
2024-05-09T22:49:29.624Z,99429.52
2024-05-09T22:54:31.466Z,99428.94
2024-05-09T22:59:33.415Z,99427.95
2024-05-09T23:04:35.258Z,99427.08
2024-05-09T23:09:37.186Z,99427.38
2024-05-09T23:14:39.049Z,99424.08
2024-05-09T23:19:40.820Z,99423.63
2024-05-09T23:24:47.887Z,99421.39
2024-05-09T23:29:49.607Z,99416.70
2024-05-09T23:34:51.386Z,99417.02
2024-05-09T23:39:54.625Z,99417.44
2024-05-09T23:44:58.465Z,99416.52
2024-05-09T23:50:00.195Z,99415.75
2024-05-09T23:55:01.885Z,99406.74
